Vendome Street — A8YI6 — position and weather

sailwx.info

Track history (hours):
 
Tides and Currents Weather Stations Pressure Air Temp Water Temp Dewpoint Dewpoint Depression Visibility Wind Speed Wind Dir Waves Ship Positions

Vendome Street

Last reported at 2015-Apr-08 14:19 UTC. Time now 2015-Apr-19 03:03 UTC.
Position N 27°37' W 083°05'.
Warning: this ship's position is 10 days out of date.

Length 177 m; draft 7.8 m.

Type: Tanker. MMSI: 636015064.

Date/timePositionNaut miles runAvg speedWind from/ knotsBaromVisibWave heightAir tempDewpointWater temp
2015-Apr-08 14:19N 27°37' W 083°05'0 0.0
2015-Apr-08 13:31N 27°37' W 083°05'0 0.0
2015-Apr-08 12:28N 27°37' W 083°05'0 0.0
2015-Apr-07 13:13N 27°37' W 083°05'0 0.1
2015-Apr-07 12:22N 27°37' W 083°05'0 0.0
2015-Apr-06 13:13N 27°37' W 083°05'0 0.0
2015-Apr-06 12:31N 27°37' W 083°05'0 0.0
2015-Apr-05 23:28N 27°37' W 083°05'0 0.0
2015-Apr-05 22:31N 27°37' W 083°05'0 0.0
2015-Apr-05 21:31N 27°37' W 083°05'0 0.0
2015-Apr-05 13:22N 27°37' W 083°05'0 0.0
2015-Apr-04 13:16N 27°37' W 083°05'0 0.0
2015-Apr-04 09:07N 27°37' W 083°05'0 0.0
2015-Apr-04 08:19N 27°37' W 083°05'0 0.0
2015-Apr-04 07:28N 27°37' W 083°05'0 0.0
2015-Apr-04 02:28N 27°37' W 083°05'0 0.0
2015-Apr-04 01:31N 27°37' W 083°05'0 0.0
2015-Apr-04 00:19N 27°37' W 083°05'0 0.0
2015-Apr-03 22:07N 27°37' W 083°05'0 0.0
2015-Apr-03 13:25N 27°37' W 083°05'0 0.5
2015-Apr-03 12:33N 27°37' W 083°05'3210.5
2015-Apr-03 09:33N 27°46' W 082°31'9 9.5
2015-Apr-03 08:33N 27°55' W 082°27'0 0.2
2015-Apr-03 07:32N 27°55' W 082°27'0 0.0
2015-Apr-02 01:15N 27°55' W 082°27'0 0.1
2015-Apr-02 00:34N 27°55' W 082°27'5 4.8
2015-Apr-01 23:34N 27°50' W 082°27'9 9.3
2015-Apr-01 22:34N 27°43' W 082°33'10 9.8
2015-Apr-01 21:33N 27°37' W 082°41'1210.4
2015-Apr-01 20:25N 27°36' W 082°55'8 9.7
2015-Apr-01 19:33N 27°36' W 083°04'4 3.5
2015-Apr-01 18:29N 27°35' W 083°08'1112.2
2015-Apr-01 17:33N 27°32' W 083°21'1211.5
2015-Apr-01 16:33N 27°21' W 083°25'1512.9
2015-Apr-01 15:26N 27°07' W 083°25'1011.2
2015-Apr-01 14:34N 26°57' W 083°25'2510.9
2015-Apr-01 12:15N 26°32' W 083°25'1013.5
2015-Apr-01 11:32N 26°22' W 083°25'1513.6
2015-Apr-01 10:25N 26°07' W 083°25'1213.6
2015-Apr-01 09:32N 25°55' W 083°25'1413.7
2015-Apr-01 08:33N 25°41' W 083°25'1513.8
2015-Apr-01 07:28N 25°26' W 083°25'1613.7
2015-Apr-01 06:17N 25°10' W 083°25'193 8.0
2015-Mar-31 06:09N 25°51' W 079°56'610.8
2015-Mar-31 05:34N 25°56' W 079°59'1010.3
2015-Mar-31 04:34N 26°05' W 080°05'2 2.3
2015-Mar-31 03:32N 26°05' W 080°07'0 0.0
2015-Mar-31 02:32N 26°05' W 080°07'0 0.0
2015-Mar-31 01:32N 26°05' W 080°07'0 0.0
2015-Mar-31 00:32N 26°05' W 080°07'0 0.0
2015-Mar-30 23:32N 26°05' W 080°07'0 0.0
2015-Mar-30 22:23N 26°05' W 080°07'0 0.0
2015-Mar-30 21:26N 26°05' W 080°07'0 0.0
2015-Mar-30 20:26N 26°05' W 080°07'0 0.0
2015-Mar-30 19:26N 26°05' W 080°07'0 0.0
2015-Mar-30 18:26N 26°05' W 080°07'0 0.0
2015-Mar-30 17:29N 26°05' W 080°07'0 0.0
2015-Mar-30 16:29N 26°05' W 080°07'0 0.0
2015-Mar-30 15:32N 26°05' W 080°07'0 0.0
2015-Mar-30 14:32N 26°05' W 080°07'  
Track history (hours):
 
Tides and Currents Weather Stations Pressure Air Temp Water Temp Dewpoint Dewpoint Depression Visibility Wind Speed Wind Dir Waves Ship Positions

Vendome Street

Last reported at 2015-Apr-08 14:19 UTC. Time now 2015-Apr-19 03:03 UTC.
Position N 27°37' W 083°05'.
Warning: this ship's position is 10 days out of date.

Length 177 m; draft 7.8 m.

Type: Tanker. MMSI: 636015064.

Date/timePositionNaut miles runAvg speedWind from/ knotsBaromVisibWave heightAir tempDewpointWater temp
2015-Apr-08 14:19N 27°37' W 083°05'0 0.0
2015-Apr-08 13:31N 27°37' W 083°05'0 0.0
2015-Apr-08 12:28N 27°37' W 083°05'0 0.0
2015-Apr-07 13:13N 27°37' W 083°05'0 0.1
2015-Apr-07 12:22N 27°37' W 083°05'0 0.0
2015-Apr-06 13:13N 27°37' W 083°05'0 0.0
2015-Apr-06 12:31N 27°37' W 083°05'0 0.0
2015-Apr-05 23:28N 27°37' W 083°05'0 0.0
2015-Apr-05 22:31N 27°37' W 083°05'0 0.0
2015-Apr-05 21:31N 27°37' W 083°05'0 0.0
2015-Apr-05 13:22N 27°37' W 083°05'0 0.0
2015-Apr-04 13:16N 27°37' W 083°05'0 0.0
2015-Apr-04 09:07N 27°37' W 083°05'0 0.0
2015-Apr-04 08:19N 27°37' W 083°05'0 0.0
2015-Apr-04 07:28N 27°37' W 083°05'0 0.0
2015-Apr-04 02:28N 27°37' W 083°05'0 0.0
2015-Apr-04 01:31N 27°37' W 083°05'0 0.0
2015-Apr-04 00:19N 27°37' W 083°05'0 0.0
2015-Apr-03 22:07N 27°37' W 083°05'0 0.0
2015-Apr-03 13:25N 27°37' W 083°05'0 0.5
2015-Apr-03 12:33N 27°37' W 083°05'3210.5
2015-Apr-03 09:33N 27°46' W 082°31'9 9.5
2015-Apr-03 08:33N 27°55' W 082°27'0 0.2
2015-Apr-03 07:32N 27°55' W 082°27'0 0.0
2015-Apr-02 01:15N 27°55' W 082°27'0 0.1
2015-Apr-02 00:34N 27°55' W 082°27'5 4.8
2015-Apr-01 23:34N 27°50' W 082°27'9 9.3
2015-Apr-01 22:34N 27°43' W 082°33'10 9.8
2015-Apr-01 21:33N 27°37' W 082°41'1210.4
2015-Apr-01 20:25N 27°36' W 082°55'8 9.7
2015-Apr-01 19:33N 27°36' W 083°04'4 3.5
2015-Apr-01 18:29N 27°35' W 083°08'1112.2
2015-Apr-01 17:33N 27°32' W 083°21'1211.5
2015-Apr-01 16:33N 27°21' W 083°25'1512.9
2015-Apr-01 15:26N 27°07' W 083°25'1011.2
2015-Apr-01 14:34N 26°57' W 083°25'2510.9
2015-Apr-01 12:15N 26°32' W 083°25'1013.5
2015-Apr-01 11:32N 26°22' W 083°25'1513.6
2015-Apr-01 10:25N 26°07' W 083°25'1213.6
2015-Apr-01 09:32N 25°55' W 083°25'1413.7
2015-Apr-01 08:33N 25°41' W 083°25'1513.8
2015-Apr-01 07:28N 25°26' W 083°25'1613.7
2015-Apr-01 06:17N 25°10' W 083°25'193 8.0
2015-Mar-31 06:09N 25°51' W 079°56'610.8
2015-Mar-31 05:34N 25°56' W 079°59'1010.3
2015-Mar-31 04:34N 26°05' W 080°05'2 2.3
2015-Mar-31 03:32N 26°05' W 080°07'0 0.0
2015-Mar-31 02:32N 26°05' W 080°07'0 0.0
2015-Mar-31 01:32N 26°05' W 080°07'0 0.0
2015-Mar-31 00:32N 26°05' W 080°07'0 0.0
2015-Mar-30 23:32N 26°05' W 080°07'0 0.0
2015-Mar-30 22:23N 26°05' W 080°07'0 0.0
2015-Mar-30 21:26N 26°05' W 080°07'0 0.0
2015-Mar-30 20:26N 26°05' W 080°07'0 0.0
2015-Mar-30 19:26N 26°05' W 080°07'0 0.0
2015-Mar-30 18:26N 26°05' W 080°07'0 0.0
2015-Mar-30 17:29N 26°05' W 080°07'0 0.0
2015-Mar-30 16:29N 26°05' W 080°07'0 0.0
2015-Mar-30 15:32N 26°05' W 080°07'0 0.0
2015-Mar-30 14:32N 26°05' W 080°07'  

Dump ship's entire track history